Time;durP1;ratioP1;P1;durP2;ratioP2;P2;SDS_P1;SDS_P2;PMS_P1;PMS_P2;Temp;Humidity;BMP_temperature;BMP_pressure;BME280_temperature;BME280_humidity;BME280_pressure;Samples;Min_cycle;Max_cycle;Signal;HPM_P1;HPM_P2
2022/01/25 00:08:24;;;;;;;47.72;24.88;;;-1.30;99.90;;;;;;5004859;28;20586;-84
2022/01/25 00:24:17;;;;;;;33.53;20.13;;;-1.20;99.90;;;;;;5002164;28;20198;-84
2022/01/25 00:24:25;;;;;;;40.90;20.92;;;-1.20;99.90;;;;;;4996786;28;20189;-84
2022/01/25 00:30:00;;;;;;;36.42;17.35;;;-1.20;99.90;;;;;;5006249;28;20210;-84
2022/01/25 00:32:25;;;;;;;39.47;16.67;;;-1.30;99.90;;;;;;4997900;28;21021;-83
2022/01/25 00:34:51;;;;;;;31.17;17.70;;;-1.40;99.90;;;;;;5005491;28;20190;-85
2022/01/25 00:37:17;;;;;;;39.33;19.10;;;;;;;;;;5002756;28;20203;-84
2022/01/25 00:39:43;;;;;;;40.13;17.73;;;-1.30;99.90;;;;;;4993620;28;20190;-84
2022/01/25 00:42:09;;;;;;;37.87;17.37;;;-1.30;99.90;;;;;;5004277;28;20557;-83
2022/01/25 00:44:38;;;;;;;38.97;18.10;;;-1.30;99.90;;;;;;5004077;28;20693;-83
2022/01/25 00:47:06;;;;;;;36.15;18.63;;;-1.30;99.90;;;;;;5014735;28;20194;-83
2022/01/25 00:49:36;;;;;;;38.88;17.80;;;-1.30;99.90;;;;;;5004081;28;20187;-83
2022/01/25 00:52:17;;;;;;;35.25;18.20;;;-1.40;99.90;;;;;;4999163;28;20287;-83
2022/01/25 00:54:43;;;;;;;35.85;19.17;;;-0.50;99.90;;;;;;5005039;28;20174;-84
2022/01/25 00:57:09;;;;;;;35.33;15.75;;;-1.50;99.90;;;;;;5003461;28;20289;-83
2022/01/25 00:59:35;;;;;;;34.70;18.97;;;-1.40;99.90;;;;;;5000767;28;20301;-82
2022/01/25 01:02:07;;;;;;;36.53;17.70;;;-1.50;99.90;;;;;;5008474;28;20179;-83
2022/01/25 01:04:33;;;;;;;44.95;18.30;;;-2.10;99.90;;;;;;5006574;28;20257;-83
2022/01/25 01:07:05;;;;;;;36.92;17.45;;;-1.30;99.90;;;;;;5004164;28;20670;-84
2022/01/25 01:09:34;;;;;;;36.33;17.33;;;-1.20;99.90;;;;;;5021646;28;20186;-83
2022/01/25 01:12:05;;;;;;;35.33;16.38;;;-1.30;99.90;;;;;;5002895;28;20400;-84
2022/01/25 01:31:17;;;;;;;41.28;18.88;;;-1.80;99.90;;;;;;5004830;28;20204;-84
2022/01/25 01:39:45;;;;;;;39.08;18.10;;;;;;;;;;5010118;28;20258;-84
2022/01/25 01:44:04;;;;;;;46.83;20.73;;;-1.90;99.90;;;;;;5000408;28;20174;-84
2022/01/25 01:46:40;;;;;;;41.13;18.48;;;;;;;;;;4997386;28;20203;-84
2022/01/25 01:49:07;;;;;;;45.15;20.90;;;-1.80;99.90;;;;;;4997406;28;20217;-84
2022/01/25 01:51:37;;;;;;;43.85;20.80;;;-1.80;99.90;;;;;;5007144;28;20179;-83
2022/01/25 01:54:09;;;;;;;48.63;21.05;;;-1.70;99.90;;;;;;5016597;28;20204;-84
2022/01/25 01:56:36;;;;;;;49.03;21.58;;;-1.60;99.90;;;;;;4998954;28;20217;-84
2022/01/25 01:59:05;;;;;;;51.65;21.85;;;-1.60;99.90;;;;;;4998790;28;20281;-84
2022/01/25 02:01:32;;;;;;;51.20;24.00;;;-1.60;99.90;;;;;;4994466;28;20190;-84
2022/01/25 02:03:59;;;;;;;49.83;23.10;;;-1.70;99.90;;;;;;5003235;28;20191;-84
2022/01/25 02:06:25;;;;;;;53.38;24.33;;;-1.70;99.90;;;;;;4995183;28;20210;-83
2022/01/25 02:08:51;;;;;;;41.10;21.73;;;-1.70;99.90;;;;;;4997993;28;20204;-84
2022/01/25 02:11:17;;;;;;;40.63;20.00;;;-1.70;99.90;;;;;;4994286;28;20190;-84
2022/01/25 02:13:43;;;;;;;43.83;22.52;;;-1.60;99.90;;;;;;5007413;28;20189;-83
2022/01/25 02:16:17;;;;;;;38.13;18.70;;;-1.70;99.90;;;;;;5000204;28;20590;-84
2022/01/25 02:24:12;;;;;;;34.65;19.75;;;-1.70;99.90;;;;;;4996227;28;20226;-84
2022/01/25 02:26:38;;;;;;;40.43;17.77;;;-1.70;99.90;;;;;;4995116;28;20222;-85
2022/01/25 02:29:04;;;;;;;40.73;20.33;;;-1.70;99.90;;;;;;4997851;28;20198;-84
2022/01/25 02:31:30;;;;;;;41.40;19.20;;;;;;;;;;4996507;28;20191;-84
2022/01/25 02:33:55;;;;;;;46.28;20.52;;;-1.80;99.90;;;;;;4999122;28;20903;-83
2022/01/25 02:36:27;;;;;;;48.60;19.50;;;-1.80;99.90;;;;;;5004250;28;20229;-84
2022/01/25 02:38:57;;;;;;;39.30;21.17;;;-1.80;99.90;;;;;;5005190;28;20182;-84
2022/01/25 02:41:23;;;;;;;34.38;18.85;;;-1.70;99.90;;;;;;4994262;28;20206;-83
2022/01/25 02:43:50;;;;;;;42.00;19.85;;;-1.70;99.90;;;;;;5003848;28;20186;-84
2022/01/25 02:48:58;;;;;;;78.20;24.20;;;-1.80;99.90;;;;;;4999347;28;20260;-84
2022/01/25 02:51:33;;;;;;;52.35;20.80;;;-1.80;99.90;;;;;;5005536;28;20955;-84
2022/01/25 02:53:59;;;;;;;31.67;18.52;;;-1.80;99.90;;;;;;5003300;28;20637;-83
2022/01/25 02:56:28;;;;;;;91.32;23.38;;;-1.90;99.90;;;;;;5006923;28;20198;-84
2022/01/25 02:58:55;;;;;;;46.85;23.70;;;;;;;;;;5000772;28;20191;-83
2022/01/25 03:01:21;;;;;;;48.08;21.83;;;-2.00;99.90;;;;;;5004148;28;20174;-83
2022/01/25 03:03:48;;;;;;;46.22;22.63;;;;;;;;;;5014400;28;20182;-83
2022/01/25 03:06:19;;;;;;;43.38;21.60;;;-1.80;99.90;;;;;;5008685;28;20214;-84
2022/01/25 03:08:45;;;;;;;58.40;23.80;;;-1.80;99.90;;;;;;5006513;28;20222;-83
2022/01/25 03:11:12;;;;;;;55.15;21.67;;;;;;;;;;5007204;28;20182;-83
2022/01/25 03:13:49;;;;;;;65.00;24.35;;;-1.60;99.90;;;;;;4998177;28;20206;-84
2022/01/25 03:16:29;;;;;;;151.68;25.52;;;-1.60;99.90;;;;;;5004138;28;20199;-84
2022/01/25 03:18:57;;;;;;;64.63;21.30;;;-1.00;99.90;;;;;;5003213;28;20934;-84
2022/01/25 03:21:37;;;;;;;42.42;20.27;;;-1.70;99.90;;;;;;5011751;28;20195;-83
2022/01/25 03:24:05;;;;;;;40.38;19.45;;;-1.90;99.90;;;;;;4997419;28;20245;-84
2022/01/25 03:26:31;;;;;;;97.63;23.80;;;-2.00;99.90;;;;;;4998043;28;20213;-84
2022/01/25 03:28:57;;;;;;;63.08;24.67;;;-2.00;99.90;;;;;;5000980;28;20206;-83
2022/01/25 03:31:23;;;;;;;61.63;22.60;;;-2.00;99.90;;;;;;4996203;28;20170;-84
2022/01/25 03:33:49;;;;;;;42.05;20.98;;;;;;;;;;4991603;28;20662;-84
2022/01/25 03:36:16;;;;;;;49.67;21.30;;;;;;;;;;4999636;28;20209;-83
2022/01/25 03:38:42;;;;;;;46.25;22.73;;;-2.20;99.90;;;;;;4994863;28;20876;-84
2022/01/25 03:41:09;;;;;;;217.10;30.08;;;-2.10;99.90;;;;;;5011623;28;20183;-83
2022/01/25 03:43:36;;;;;;;221.73;30.17;;;-2.00;99.90;;;;;;5011090;28;20195;-84
2022/01/25 03:46:41;;;;;;;308.95;37.10;;;-2.00;99.90;;;;;;5003216;28;20190;-85
2022/01/25 03:51:38;;;;;;;337.25;41.97;;;-2.10;99.90;;;;;;5005016;28;20205;-84
2022/01/25 03:54:04;;;;;;;327.80;47.27;;;-2.10;99.90;;;;;;4999024;28;20232;-84
2022/01/25 03:56:31;;;;;;;226.65;32.90;;;-1.90;99.90;;;;;;5006659;28;20756;-84
2022/01/25 03:58:57;;;;;;;334.50;40.17;;;-1.90;99.90;;;;;;4996067;28;20186;-84
2022/01/25 04:01:23;;;;;;;181.18;32.33;;;;;;;;;;4996988;28;20263;-84
2022/01/25 04:03:58;;;;;;;88.53;24.92;;;-1.70;99.90;;;;;;5000596;28;20186;-83
2022/01/25 04:06:25;;;;;;;92.72;26.05;;;-1.60;99.90;;;;;;5005191;28;20213;-84
2022/01/25 04:08:51;;;;;;;99.60;26.80;;;;;;;;;;4996740;28;20233;-83
2022/01/25 04:11:17;;;;;;;102.13;24.55;;;-1.50;99.90;;;;;;5004437;28;20182;-84
2022/01/25 04:13:42;;;;;;;251.13;33.83;;;-1.50;99.90;;;;;;5012601;28;20316;-84
2022/01/25 04:16:14;;;;;;;154.50;30.20;;;;;;;;;;5002395;28;20477;-85
2022/01/25 04:19:00;;;;;;;108.18;22.83;;;-1.30;99.90;;;;;;5002104;28;20213;-83
2022/01/25 04:26:44;;;;;;;132.70;29.70;;;-1.60;99.90;;;;;;5001597;28;20302;-86
2022/01/25 04:29:10;;;;;;;191.50;33.17;;;;;;;;;;4995832;28;20233;-84
2022/01/25 04:31:36;;;;;;;176.95;29.75;;;-1.70;99.90;;;;;;5005002;28;20441;-83
2022/01/25 04:34:25;;;;;;;101.68;27.48;;;-1.80;99.90;;;;;;5017194;28;20178;-84
2022/01/25 04:53:34;;;;;;;66.30;25.65;;;;;;;;;;5015521;28;20203;-84
2022/01/25 04:58:21;;;;;;;53.60;25.27;;;-2.20;99.90;;;;;;4999612;28;20234;-85
2022/01/25 05:00:48;;;;;;;56.95;24.13;;;-2.20;99.90;;;;;;5003426;28;20198;-85
2022/01/25 05:03:21;;;;;;;58.22;25.00;;;-2.20;99.90;;;;;;5009994;28;20681;-86
2022/01/25 05:08:49;;;;;;;53.55;24.65;;;-2.20;99.90;;;;;;5016063;28;20271;-85
2022/01/25 05:11:39;;;;;;;50.75;22.73;;;-2.20;99.90;;;;;;5006206;28;20181;-85
2022/01/25 05:16:37;;;;;;;61.30;23.33;;;;;;;;;;4999793;28;20300;-85
2022/01/25 05:24:26;;;;;;;47.33;22.13;;;-2.30;99.90;;;;;;4995857;28;20213;-84
2022/01/25 05:26:51;;;;;;;57.77;23.53;;;-2.30;99.90;;;;;;4999114;28;20802;-85
2022/01/25 05:29:17;;;;;;;48.90;21.70;;;-2.30;99.90;;;;;;4993797;28;20251;-86
2022/01/25 05:31:42;;;;;;;51.83;23.07;;;-2.20;99.90;;;;;;4998917;28;20722;-85
2022/01/25 05:34:08;;;;;;;55.43;24.33;;;-2.20;99.90;;;;;;5001438;28;20183;-86
2022/01/25 05:36:35;;;;;;;66.60;25.70;;;-2.20;99.90;;;;;;4997897;28;20199;-85
2022/01/25 05:39:06;;;;;;;57.10;24.65;;;-2.20;99.90;;;;;;5002732;28;20187;-85
2022/01/25 05:41:33;;;;;;;61.00;23.75;;;;;;;;;;5000940;28;20186;-85
2022/01/25 05:44:23;;;;;;;53.58;26.80;;;-2.30;99.90;;;;;;5003736;28;20761;-85
2022/01/25 05:49:24;;;;;;;56.17;25.65;;;-1.50;99.90;;;;;;5001238;28;20704;-86
2022/01/25 05:51:51;;;;;;;58.87;24.63;;;-2.40;99.90;;;;;;5013555;28;20179;-85
2022/01/25 05:54:17;;;;;;;55.95;26.02;;;-2.40;99.90;;;;;;5002924;28;20448;-84
2022/01/25 05:56:42;;;;;;;58.80;25.77;;;-2.30;99.90;;;;;;5002419;28;20206;-85
2022/01/25 05:59:08;;;;;;;53.87;26.03;;;-2.40;99.90;;;;;;4996897;28;20201;-84
2022/01/25 06:01:37;;;;;;;53.37;23.93;;;;;;;;;;5005656;28;20258;-86
2022/01/25 06:04:06;;;;;;;50.00;21.95;;;-2.30;99.90;;;;;;5007118;28;20265;-86
2022/01/25 06:06:32;;;;;;;48.63;22.98;;;-2.30;99.90;;;;;;5008258;28;20247;-85
2022/01/25 06:08:59;;;;;;;43.10;22.77;;;-1.90;99.90;;;;;;5008974;28;20726;-87
2022/01/25 06:11:25;;;;;;;50.30;23.00;;;-2.40;99.90;;;;;;5006263;28;20196;-83
2022/01/25 06:13:52;;;;;;;57.10;21.80;;;-2.40;99.90;;;;;;5003915;28;20334;-86
2022/01/25 06:16:18;;;;;;;51.55;25.65;;;-2.40;99.90;;;;;;5004327;28;20239;-85
2022/01/25 06:18:44;;;;;;;51.88;22.85;;;-2.40;99.90;;;;;;5006532;28;20183;-84
2022/01/25 06:21:09;;;;;;;55.45;23.17;;;-2.40;99.90;;;;;;5005328;28;20689;-85
2022/01/25 06:23:35;;;;;;;46.70;24.10;;;-2.40;99.90;;;;;;5005461;28;20203;-85
2022/01/25 06:26:01;;;;;;;59.73;22.90;;;-2.40;99.90;;;;;;5022419;28;20198;-84
2022/01/25 06:28:26;;;;;;;51.47;22.80;;;;;;;;;;4999575;28;20257;-84
2022/01/25 06:30:52;;;;;;;55.13;22.03;;;-2.40;99.90;;;;;;5005993;28;20183;-83
2022/01/25 06:33:18;;;;;;;55.97;23.77;;;-2.50;99.90;;;;;;5008388;28;21040;-84
2022/01/25 06:35:46;;;;;;;54.97;24.90;;;-2.50;99.90;;;;;;5010333;28;20289;-83
2022/01/25 06:38:12;;;;;;;50.80;24.33;;;-2.60;99.90;;;;;;5022658;28;20664;-84
2022/01/25 06:40:38;;;;;;;53.28;22.50;;;;;;;;;;5012961;28;20307;-84
2022/01/25 06:43:04;;;;;;;60.47;27.33;;;-2.50;99.90;;;;;;5006287;28;20252;-85
2022/01/25 06:45:29;;;;;;;50.87;22.87;;;-2.50;99.90;;;;;;5007908;28;20361;-84
2022/01/25 06:47:55;;;;;;;41.20;21.50;;;-2.50;99.90;;;;;;5011740;28;20250;-84
2022/01/25 06:50:24;;;;;;;43.67;23.10;;;-2.50;99.90;;;;;;5006866;28;20190;-84
2022/01/25 06:52:51;;;;;;;40.10;22.27;;;-2.50;99.90;;;;;;5007192;28;20188;-84
2022/01/25 06:55:18;;;;;;;88.50;32.70;;;-2.50;99.90;;;;;;5009416;28;20242;-85
2022/01/25 06:57:46;;;;;;;81.65;35.47;;;-2.60;99.90;;;;;;5007719;28;20201;-83
2022/01/25 07:00:15;;;;;;;114.95;41.13;;;-2.60;99.90;;;;;;5043838;28;20179;-84
2022/01/25 07:02:41;;;;;;;75.72;30.15;;;-2.50;99.90;;;;;;5010359;28;20183;-84
2022/01/25 07:05:07;;;;;;;77.55;29.55;;;-2.50;99.90;;;;;;5009945;28;20187;-84
2022/01/25 07:07:34;;;;;;;49.60;25.48;;;-2.40;99.90;;;;;;5004921;28;20214;-85
2022/01/25 07:10:00;;;;;;;52.75;26.30;;;;;;;;;;5004864;28;20183;-84
2022/01/25 07:12:26;;;;;;;44.87;22.57;;;-2.30;99.90;;;;;;5006026;28;20326;-83
2022/01/25 07:14:51;;;;;;;46.20;23.53;;;-2.30;99.90;;;;;;5007768;28;20460;-84
2022/01/25 07:17:17;;;;;;;49.00;24.50;;;-2.20;99.90;;;;;;5003616;28;20239;-83
2022/01/25 07:19:42;;;;;;;60.60;22.57;;;-2.20;99.90;;;;;;5003426;28;20182;-83
2022/01/25 07:22:08;;;;;;;171.53;31.87;;;-2.10;99.90;;;;;;4999112;28;20202;-82
2022/01/25 07:24:34;;;;;;;158.85;27.55;;;-2.60;99.90;;;;;;5007457;28;20183;-84
2022/01/25 07:27:00;;;;;;;235.67;33.00;;;-2.20;99.90;;;;;;5002368;28;20214;-83
2022/01/25 07:29:26;;;;;;;139.33;29.43;;;-2.20;99.90;;;;;;4998726;28;20225;-84
2022/01/25 07:31:52;;;;;;;127.82;28.52;;;-2.20;99.90;;;;;;4998729;28;20750;-84
2022/01/25 07:34:17;;;;;;;134.37;27.90;;;-2.20;99.90;;;;;;4996498;28;20256;-83
2022/01/25 07:36:43;;;;;;;113.23;27.43;;;-2.10;99.90;;;;;;4997771;28;20818;-83
2022/01/25 07:39:10;;;;;;;78.33;22.63;;;-2.10;99.90;;;;;;5004321;28;20263;-84
2022/01/25 07:41:37;;;;;;;49.42;22.70;;;-2.10;99.90;;;;;;5003474;28;20366;-83
2022/01/25 07:44:03;;;;;;;143.52;28.15;;;-2.00;99.90;;;;;;4992396;28;20184;-83
2022/01/25 07:46:29;;;;;;;144.38;29.65;;;-2.00;99.90;;;;;;5003996;28;20205;-83
2022/01/25 07:48:56;;;;;;;147.02;27.83;;;-2.00;99.90;;;;;;5006954;28;20214;-83
2022/01/25 07:51:22;;;;;;;136.90;27.55;;;;;;;;;;5002478;28;20178;-84
2022/01/25 07:53:48;;;;;;;65.85;22.45;;;-1.80;99.90;;;;;;5004391;28;20662;-83
2022/01/25 07:56:14;;;;;;;58.87;26.30;;;;;;;;;;5004631;28;20194;-84
2022/01/25 07:58:39;;;;;;;60.40;29.85;;;-1.70;99.90;;;;;;5001888;28;20465;-84
2022/01/25 08:01:05;;;;;;;54.27;27.97;;;-1.10;99.90;;;;;;5003541;28;20265;-84
2022/01/25 08:03:31;;;;;;;50.07;22.87;;;-1.60;99.90;;;;;;5006527;28;20270;-84
2022/01/25 08:05:57;;;;;;;68.70;33.03;;;;;;;;;;5006307;28;20190;-84
2022/01/25 08:08:23;;;;;;;51.47;26.92;;;-1.40;99.90;;;;;;5006322;28;20465;-83
2022/01/25 08:10:49;;;;;;;53.00;24.20;;;;;;;;;;5006530;28;20190;-84
2022/01/25 08:13:15;;;;;;;65.13;27.15;;;-1.10;99.90;;;;;;5000552;28;20191;-83
2022/01/25 08:15:41;;;;;;;59.05;31.67;;;-1.20;99.90;;;;;;5021637;28;20203;-84
2022/01/25 08:18:06;;;;;;;82.03;43.67;;;-1.00;99.90;;;;;;5009170;28;20282;-83
2022/01/25 08:20:32;;;;;;;103.80;47.70;;;-0.80;99.90;;;;;;5022908;28;20577;-84
2022/01/25 08:22:58;;;;;;;83.10;37.87;;;-0.40;99.90;;;;;;5010416;28;20190;-84
2022/01/25 08:25:23;;;;;;;89.43;37.27;;;0.00;99.90;;;;;;5004827;28;20204;-85
2022/01/25 08:27:49;;;;;;;87.07;38.80;;;0.60;99.90;;;;;;5001428;28;20221;-83
2022/01/25 08:30:15;;;;;;;93.77;39.33;;;1.00;99.90;;;;;;5004424;28;20194;-84
2022/01/25 08:32:41;;;;;;;58.00;32.00;;;1.30;99.90;;;;;;5004723;28;20197;-86
2022/01/25 08:35:07;;;;;;;54.42;28.48;;;1.30;99.90;;;;;;5003607;28;21060;-86
2022/01/25 08:37:33;;;;;;;44.22;25.88;;;1.00;99.90;;;;;;5001907;28;20202;-84
2022/01/25 08:39:59;;;;;;;45.90;24.10;;;;;;;;;;5016495;28;20630;-83
2022/01/25 08:42:24;;;;;;;45.53;27.48;;;1.30;99.90;;;;;;5018155;28;20190;-84
2022/01/25 08:44:50;;;;;;;63.67;32.23;;;0.70;99.90;;;;;;5007400;28;20664;-84
2022/01/25 08:47:16;;;;;;;49.90;25.53;;;1.60;99.90;;;;;;4996868;28;20203;-84
2022/01/25 08:49:42;;;;;;;33.70;21.03;;;1.40;99.90;;;;;;5004658;28;20453;-86
2022/01/25 08:52:08;;;;;;;30.00;17.50;;;1.10;99.90;;;;;;5000928;28;20658;-84
2022/01/25 08:54:34;;;;;;;31.73;19.33;;;1.00;99.90;;;;;;4995972;28;20270;-84
2022/01/25 08:57:00;;;;;;;34.63;20.10;;;0.80;99.90;;;;;;5002801;28;20445;-84
2022/01/25 08:59:26;;;;;;;36.25;18.83;;;0.80;99.90;;;;;;5002070;28;20251;-84
2022/01/25 09:01:52;;;;;;;36.27;20.00;;;0.80;99.90;;;;;;4999033;28;20677;-84
2022/01/25 09:04:17;;;;;;;33.87;17.93;;;;;;;;;;5007150;28;20238;-83
2022/01/25 09:06:43;;;;;;;30.73;19.87;;;0.60;99.90;;;;;;5005039;28;21158;-83
2022/01/25 09:09:09;;;;;;;35.63;19.07;;;0.30;99.90;;;;;;5002678;28;20835;-83
2022/01/25 09:11:37;;;;;;;45.78;23.88;;;0.30;99.90;;;;;;4999009;28;20551;-84
2022/01/25 09:14:04;;;;;;;44.45;23.10;;;0.50;99.90;;;;;;4994012;28;20217;-83
2022/01/25 09:16:29;;;;;;;46.40;24.98;;;0.50;99.90;;;;;;5009655;28;20201;-86
2022/01/25 09:18:55;;;;;;;49.77;28.57;;;0.60;99.90;;;;;;5007413;28;20191;-85
2022/01/25 09:21:21;;;;;;;62.77;33.73;;;0.70;99.90;;;;;;5003732;28;20194;-85
2022/01/25 09:23:46;;;;;;;78.30;45.33;;;1.70;99.90;;;;;;5020222;28;20187;-85
2022/01/25 09:26:12;;;;;;;73.13;42.23;;;1.60;99.90;;;;;;5001314;28;20194;-85
2022/01/25 09:28:38;;;;;;;76.33;36.43;;;1.70;99.90;;;;;;4997566;28;20206;-85
2022/01/25 09:31:03;;;;;;;67.57;36.63;;;2.10;99.90;;;;;;5002082;28;20285;-85
2022/01/25 09:33:29;;;;;;;69.70;32.90;;;2.50;99.90;;;;;;5003909;28;20213;-85
2022/01/25 09:35:56;;;;;;;75.07;34.40;;;2.80;99.90;;;;;;5001989;28;20214;-85
2022/01/25 09:38:23;;;;;;;82.97;30.45;;;2.90;99.90;;;;;;5001481;28;20706;-85
2022/01/25 09:40:49;;;;;;;70.40;29.10;;;2.50;99.90;;;;;;5003617;28;20261;-86
2022/01/25 09:43:16;;;;;;;65.72;28.58;;;2.50;99.90;;;;;;5002815;28;20198;-85
2022/01/25 09:45:42;;;;;;;59.72;27.98;;;2.30;99.90;;;;;;5001831;28;20206;-85
2022/01/25 09:48:08;;;;;;;98.13;30.67;;;;;;;;;;5003282;28;20245;-85
2022/01/25 09:50:35;;;;;;;91.28;30.95;;;1.90;99.90;;;;;;5008688;28;20455;-86
2022/01/25 09:53:02;;;;;;;103.63;30.55;;;1.90;99.90;;;;;;5008980;28;20178;-86
2022/01/25 09:55:32;;;;;;;113.25;33.38;;;1.80;99.90;;;;;;5010902;28;20171;-85
2022/01/25 09:57:58;;;;;;;129.60;33.92;;;1.70;99.90;;;;;;4999152;28;20217;-86
2022/01/25 10:00:29;;;;;;;208.27;35.33;;;1.60;99.90;;;;;;5006284;28;20191;-85
2022/01/25 10:03:11;;;;;;;134.98;32.55;;;1.60;99.90;;;;;;5005229;28;20245;-85
2022/01/25 10:05:43;;;;;;;133.40;31.80;;;1.50;99.90;;;;;;5008841;28;20535;-84
2022/01/25 10:08:26;;;;;;;108.63;30.77;;;1.40;99.90;;;;;;5002343;28;20311;-85
2022/01/25 10:10:59;;;;;;;224.93;40.75;;;1.60;99.90;;;;;;5006246;28;20203;-85
2022/01/25 10:13:37;;;;;;;247.70;42.67;;;1.70;99.90;;;;;;4991207;28;20174;-85
2022/01/25 10:16:10;;;;;;;249.65;39.92;;;1.40;99.90;;;;;;5008768;28;20179;-85
2022/01/25 10:18:44;;;;;;;241.38;41.55;;;1.50;99.90;;;;;;5006652;28;20200;-86
2022/01/25 10:21:13;;;;;;;184.02;40.00;;;1.50;99.90;;;;;;5004353;28;20302;-86
2022/01/25 10:23:40;;;;;;;199.55;41.13;;;1.50;99.90;;;;;;5005360;28;20965;-85
2022/01/25 10:26:06;;;;;;;185.63;44.50;;;1.80;99.90;;;;;;5005069;28;20186;-86
2022/01/25 10:28:32;;;;;;;200.50;44.23;;;;;;;;;;5001717;28;20245;-86
2022/01/25 10:31:04;;;;;;;174.63;39.70;;;2.10;99.90;;;;;;5006103;28;20771;-85
2022/01/25 10:33:44;;;;;;;149.02;37.83;;;2.10;99.90;;;;;;5006851;28;20436;-85
2022/01/25 10:36:11;;;;;;;137.25;35.15;;;2.10;99.90;;;;;;5005445;28;20194;-86
2022/01/25 10:38:37;;;;;;;142.38;34.10;;;2.10;99.90;;;;;;5025637;28;20209;-86
2022/01/25 10:41:07;;;;;;;102.07;30.57;;;2.20;99.90;;;;;;5008834;28;20235;-85
2022/01/25 10:43:34;;;;;;;85.00;33.00;;;2.60;99.90;;;;;;5008301;28;20433;-84
2022/01/25 10:46:12;;;;;;;110.45;33.25;;;3.30;99.90;;;;;;5025951;28;20178;-85
2022/01/25 10:48:41;;;;;;;87.85;33.00;;;3.20;99.90;;;;;;5012589;28;20217;-85
2022/01/25 10:51:15;;;;;;;88.93;35.63;;;3.40;99.90;;;;;;5010060;28;20197;-84
2022/01/25 10:53:41;;;;;;;80.82;31.83;;;3.60;99.90;;;;;;5007433;28;20768;-85
2022/01/25 10:56:08;;;;;;;86.90;32.60;;;3.50;99.90;;;;;;5007931;28;20210;-85
2022/01/25 10:58:40;;;;;;;107.25;33.08;;;3.50;99.90;;;;;;5003274;28;20879;-84
2022/01/25 11:01:06;;;;;;;94.47;31.00;;;3.70;99.90;;;;;;5006160;28;20198;-85
2022/01/25 11:03:40;;;;;;;83.53;30.98;;;3.80;99.90;;;;;;5004641;28;20194;-85
2022/01/25 11:06:27;;;;;;;86.18;33.00;;;3.90;99.90;;;;;;5022299;28;20260;-84
2022/01/25 11:08:54;;;;;;;119.40;34.53;;;3.80;99.90;;;;;;5022419;28;20210;-85
2022/01/25 11:11:49;;;;;;;76.75;31.73;;;3.40;99.90;;;;;;5006005;28;20743;-85
2022/01/25 11:17:00;;;;;;;81.88;32.33;;;3.20;99.90;;;;;;5006740;28;20258;-85
2022/01/25 11:19:26;;;;;;;90.30;34.35;;;3.30;99.90;;;;;;5006011;28;20190;-84
2022/01/25 11:21:53;;;;;;;80.57;35.10;;;3.20;99.90;;;;;;4996617;28;20193;-85
2022/01/25 11:24:20;;;;;;;75.47;32.67;;;3.10;99.90;;;;;;5005037;28;20445;-84
2022/01/25 11:26:48;;;;;;;81.35;35.28;;;2.90;99.90;;;;;;5004650;28;20225;-84
2022/01/25 11:29:15;;;;;;;87.53;32.28;;;2.70;99.90;;;;;;5005613;28;20202;-84
2022/01/25 11:31:46;;;;;;;77.68;33.05;;;2.90;99.90;;;;;;5011635;28;20175;-83
2022/01/25 11:34:14;;;;;;;93.55;32.45;;;3.20;99.90;;;;;;5026620;28;20186;-84
2022/01/25 11:37:07;;;;;;;90.03;34.60;;;3.50;99.90;;;;;;5008103;28;21011;-84
2022/01/25 11:39:35;;;;;;;78.75;34.42;;;3.40;99.90;;;;;;5000413;28;20195;-85
2022/01/25 11:42:10;;;;;;;81.75;35.88;;;3.40;99.90;;;;;;5009946;28;20188;-84
2022/01/25 11:44:45;;;;;;;86.15;34.30;;;2.80;99.90;;;;;;5006186;28;20957;-84
2022/01/25 11:47:16;;;;;;;77.28;33.53;;;2.60;99.90;;;;;;5008403;28;20301;-84
2022/01/25 11:50:00;;;;;;;88.93;34.28;;;2.50;99.90;;;;;;5008937;28;20226;-87
2022/01/25 11:52:27;;;;;;;65.32;31.35;;;2.30;99.90;;;;;;5005433;28;20263;-83
2022/01/25 11:55:30;;;;;;;72.20;31.20;;;2.10;99.90;;;;;;5008959;28;20190;-84
2022/01/25 11:58:06;;;;;;;70.50;29.67;;;2.00;99.90;;;;;;5006873;28;20225;-83
2022/01/25 12:00:38;;;;;;;89.78;34.20;;;1.90;99.90;;;;;;5020046;28;20192;-84
2022/01/25 12:03:31;;;;;;;85.75;33.70;;;1.80;99.90;;;;;;5017907;28;20190;-83
2022/01/25 12:06:02;;;;;;;75.72;34.83;;;1.80;99.90;;;;;;5023552;28;20190;-83
2022/01/25 12:08:38;;;;;;;77.95;34.63;;;1.80;99.90;;;;;;4997523;28;20272;-83
2022/01/25 12:11:45;;;;;;;78.97;32.13;;;1.80;99.90;;;;;;5005588;28;20182;-83
2022/01/25 12:14:19;;;;;;;84.65;33.97;;;1.90;99.90;;;;;;5004391;28;20303;-83
2022/01/25 12:16:51;;;;;;;78.93;32.55;;;1.70;99.90;;;;;;5006801;28;20213;-83
2022/01/25 12:19:21;;;;;;;86.43;32.58;;;1.70;99.90;;;;;;5009139;28;20190;-83
2022/01/25 12:21:48;;;;;;;80.10;34.22;;;1.70;99.90;;;;;;5006239;28;20194;-83
2022/01/25 12:24:36;;;;;;;85.20;33.33;;;1.60;99.90;;;;;;5007634;28;20175;-84
2022/01/25 12:27:26;;;;;;;81.00;31.02;;;1.70;99.90;;;;;;5007853;28;20206;-84
2022/01/25 12:30:17;;;;;;;68.15;29.10;;;1.40;99.90;;;;;;5007805;28;20193;-84
2022/01/25 12:33:18;;;;;;;86.82;33.95;;;1.50;99.90;;;;;;5018078;28;20210;-83
2022/01/25 12:35:49;;;;;;;76.47;34.22;;;1.70;99.90;;;;;;5006039;28;20178;-84
2022/01/25 12:38:43;;;;;;;82.38;30.30;;;1.80;99.90;;;;;;5008381;28;20212;-84
2022/01/25 12:41:13;;;;;;;87.53;32.20;;;1.90;99.90;;;;;;5009515;28;20194;-84
2022/01/25 12:43:45;;;;;;;86.47;32.40;;;1.90;99.90;;;;;;5002757;28;20178;-84
2022/01/25 12:46:13;;;;;;;82.13;33.00;;;1.90;99.90;;;;;;4997946;28;20736;-84
2022/01/25 12:48:51;;;;;;;85.10;34.63;;;1.90;99.90;;;;;;5023594;28;20206;-84
2022/01/25 12:51:24;;;;;;;72.45;31.15;;;1.90;99.90;;;;;;5010921;28;20201;-83
2022/01/25 12:53:53;;;;;;;91.07;33.55;;;1.90;99.90;;;;;;5020496;28;20182;-83
2022/01/25 12:56:28;;;;;;;68.57;28.00;;;1.80;99.90;;;;;;5018857;28;20220;-84
2022/01/25 12:58:59;;;;;;;87.78;36.70;;;1.80;99.90;;;;;;5006514;28;20590;-84
2022/01/25 13:01:26;;;;;;;74.85;33.00;;;1.80;99.90;;;;;;5009705;28;20296;-83
2022/01/25 13:03:56;;;;;;;85.20;35.42;;;2.00;99.90;;;;;;5009859;28;20190;-84
2022/01/25 13:06:27;;;;;;;99.90;37.55;;;2.10;99.90;;;;;;5008894;28;20290;-84
2022/01/25 13:09:09;;;;;;;80.82;30.98;;;2.10;99.90;;;;;;5006903;28;20300;-84
2022/01/25 13:11:49;;;;;;;95.38;34.72;;;2.10;99.90;;;;;;5006571;28;20642;-83
2022/01/25 13:17:05;;;;;;;95.82;33.47;;;2.00;99.90;;;;;;5010905;28;20202;-84
2022/01/25 13:19:52;;;;;;;81.18;32.70;;;1.90;99.90;;;;;;5025016;28;20182;-84
2022/01/25 13:22:24;;;;;;;90.38;35.15;;;1.90;99.90;;;;;;5005197;28;20207;-84
2022/01/25 13:25:14;;;;;;;76.90;32.78;;;1.90;99.90;;;;;;5013337;28;20179;-82
2022/01/25 13:27:48;;;;;;;89.13;33.67;;;1.80;99.90;;;;;;5021196;28;20209;-85
2022/01/25 13:33:00;;;;;;;75.13;32.53;;;1.80;99.90;;;;;;5009663;28;20189;-83
2022/01/25 13:35:31;;;;;;;80.03;32.83;;;1.80;99.90;;;;;;5028492;27;20227;-83
2022/01/25 13:38:20;;;;;;;92.82;35.90;;;1.80;99.90;;;;;;5001717;28;20644;-83
2022/01/25 13:40:56;;;;;;;75.43;31.60;;;1.80;99.90;;;;;;5014967;27;20273;-83
2022/01/25 13:46:07;;;;;;;93.57;35.05;;;1.70;99.90;;;;;;5011548;28;20178;-84
2022/01/25 13:48:34;;;;;;;80.32;33.83;;;1.70;99.90;;;;;;5009987;28;20225;-84
2022/01/25 13:51:06;;;;;;;76.80;34.78;;;1.80;99.90;;;;;;5008164;28;20193;-83
2022/01/25 13:53:33;;;;;;;87.22;33.00;;;1.80;99.90;;;;;;5009856;28;20947;-84
2022/01/25 13:56:00;;;;;;;62.67;29.45;;;1.80;99.90;;;;;;5013072;28;20235;-83
2022/01/25 13:58:41;;;;;;;74.65;31.25;;;1.80;99.90;;;;;;5006576;28;20294;-84
2022/01/25 14:01:09;;;;;;;84.47;32.40;;;1.70;99.90;;;;;;5007779;28;20231;-82
2022/01/25 14:03:43;;;;;;;94.55;32.88;;;1.70;99.90;;;;;;5008096;28;20207;-84
2022/01/25 14:06:25;;;;;;;81.55;34.38;;;1.40;99.90;;;;;;5005411;28;20559;-84
2022/01/25 14:08:58;;;;;;;82.72;32.38;;;1.40;99.90;;;;;;5025210;28;20218;-84
2022/01/25 14:21:39;;;;;;;86.80;34.30;;;1.50;99.90;;;;;;5010521;28;20171;-83
2022/01/25 14:22:56;;;;;;;95.60;35.60;;;1.50;99.90;;;;;;5011427;28;20840;-84
2022/01/25 14:25:39;;;;;;;78.80;32.70;;;1.40;99.90;;;;;;5010402;28;20982;-84
2022/01/25 14:28:19;;;;;;;85.10;34.80;;;1.30;99.90;;;;;;4996127;28;20210;-84
2022/01/25 14:30:50;;;;;;;84.15;35.67;;;1.30;99.90;;;;;;5026817;28;20173;-83
2022/01/25 14:33:20;;;;;;;77.00;32.22;;;1.30;99.90;;;;;;5012684;28;20187;-83
2022/01/25 14:36:01;;;;;;;83.93;35.83;;;1.40;99.90;;;;;;5007714;28;20179;-83
2022/01/25 14:38:29;;;;;;;80.63;34.33;;;1.40;99.90;;;;;;5010668;28;20190;-83
2022/01/25 14:41:09;;;;;;;83.47;31.75;;;1.40;99.90;;;;;;5006953;28;20255;-82
2022/01/25 14:43:38;;;;;;;84.80;34.92;;;1.40;99.90;;;;;;5017498;27;20182;-83
2022/01/25 14:46:10;;;;;;;91.85;35.42;;;1.50;99.90;;;;;;5010854;28;20186;-83